Time;durP1;ratioP1;P1;durP2;ratioP2;P2;SDS_P1;SDS_P2;PMS_P1;PMS_P2;Temp;Humidity;BMP_temperature;BMP_pressure;BME280_temperature;BME280_humidity;BME280_pressure;Samples;Min_cycle;Max_cycle;Signal;HPM_P1;HPM_P2
2021/06/09 00:02:16;;;;;;;15.55;13.70;;;;;;;13.54;84.31;95942.72;4922141;29;20040;-71
2021/06/09 00:04:42;;;;;;;16.67;14.88;;;;;;;13.48;85.19;95938.53;4925250;29;20052;-70
2021/06/09 00:07:07;;;;;;;17.85;14.48;;;;;;;13.40;85.44;95944.41;4906964;29;20045;-71
2021/06/09 00:09:33;;;;;;;16.38;13.90;;;;;;;13.40;85.63;95949.69;4911593;29;20040;-71
2021/06/09 00:11:59;;;;;;;17.80;13.77;;;;;;;13.40;85.57;95925.91;4912350;29;20500;-71
2021/06/09 00:14:24;;;;;;;17.58;14.65;;;;;;;13.34;85.94;95944.44;4912355;29;20462;-71
2021/06/09 00:16:50;;;;;;;19.50;15.60;;;;;;;13.34;85.70;95941.78;4912255;29;20477;-71
2021/06/09 00:19:16;;;;;;;15.70;13.75;;;;;;;13.36;85.54;95935.44;4903662;29;20043;-71
2021/06/09 00:21:46;;;;;;;18.27;14.25;;;;;;;13.30;85.80;95932.84;4919940;29;20124;-71
2021/06/09 00:24:14;;;;;;;15.55;13.63;;;;;;;13.25;84.61;95943.44;4900628;29;20103;-71
2021/06/09 00:26:39;;;;;;;15.80;13.63;;;;;;;13.21;85.22;95938.97;4918281;29;20110;-71
2021/06/09 00:29:05;;;;;;;18.80;13.57;;;;;;;13.14;84.85;95939.28;4915616;29;20049;-70
2021/06/09 00:31:31;;;;;;;16.58;13.90;;;;;;;13.09;85.77;95941.97;4927127;29;20115;-70
2021/06/09 00:33:56;;;;;;;17.13;13.93;;;;;;;13.03;85.76;95937.75;4910451;29;20443;-69
2021/06/09 00:36:22;;;;;;;17.83;14.45;;;;;;;12.98;86.18;95936.72;4911175;29;20127;-70
2021/06/09 00:38:48;;;;;;;19.10;14.75;;;;;;;12.93;86.48;95936.78;4894646;29;20055;-70
2021/06/09 00:41:13;;;;;;;17.05;14.15;;;;;;;12.89;86.39;95932.31;4908774;29;20058;-70
2021/06/09 00:43:39;;;;;;;16.13;14.40;;;;;;;12.85;86.45;95937.34;4904241;29;20403;-70
2021/06/09 00:46:08;;;;;;;20.15;13.65;;;;;;;12.83;86.15;95931.56;4923076;29;20071;-70
2021/06/09 00:48:37;;;;;;;15.75;13.45;;;;;;;12.79;86.57;95933.16;4907918;29;20451;-70
2021/06/09 00:51:05;;;;;;;20.13;15.20;;;;;;;12.74;86.97;95935.81;4893942;29;20071;-70
2021/06/09 00:56:06;;;;;;;15.55;13.77;;;;;;;12.70;86.65;95937.41;4894560;29;20048;-70
2021/06/09 00:58:32;;;;;;;16.80;14.43;;;;;;;12.67;86.84;95930.03;4894027;29;20040;-70
2021/06/09 01:00:57;;;;;;;18.80;14.98;;;;;;;12.67;87.34;95935.31;4920354;29;20062;-70
2021/06/09 01:03:24;;;;;;;16.45;14.15;;;;;;;12.70;87.04;95924.22;4895271;29;20045;-70
2021/06/09 01:05:50;;;;;;;16.80;14.57;;;;;;;12.71;87.16;95931.84;4931269;29;20051;-69
2021/06/09 01:08:16;;;;;;;18.17;14.88;;;;;;;12.68;87.13;95936.91;4902318;29;20041;-70
2021/06/09 01:10:49;;;;;;;17.30;14.05;;;;;;;12.61;86.49;95935.38;4894185;29;20506;-70
2021/06/09 01:13:16;;;;;;;15.70;13.77;;;;;;;12.59;86.09;95934.81;4898748;29;20498;-70
2021/06/09 01:15:42;;;;;;;17.27;14.07;;;;;;;12.57;86.61;95942.25;4923001;29;20043;-70
2021/06/09 01:18:09;;;;;;;16.35;13.85;;;;;;;12.54;86.36;95932.22;4906969;29;20425;-70
2021/06/09 01:20:36;;;;;;;16.60;14.77;;;;;;;12.45;87.05;95939.13;4908513;29;20070;-70
2021/06/09 01:23:03;;;;;;;18.15;14.10;;;;;;;12.41;86.90;95932.78;4903724;29;20040;-70
2021/06/09 01:25:29;;;;;;;19.98;15.60;;;;;;;12.35;87.88;95934.66;4897399;29;20080;-71
2021/06/09 01:27:55;;;;;;;16.67;14.35;;;;;;;12.33;87.80;95936.00;4897564;29;20048;-70
2021/06/09 01:30:20;;;;;;;17.35;14.23;;;;;;;12.30;87.54;95938.13;4898959;29;20065;-69
2021/06/09 01:32:47;;;;;;;21.17;15.20;;;;;;;12.26;87.46;95937.06;4912310;29;20099;-70
2021/06/09 01:35:13;;;;;;;17.63;14.73;;;;;;;12.19;87.47;95933.91;4921331;29;20079;-70
2021/06/09 01:37:39;;;;;;;19.05;15.27;;;;;;;12.17;88.12;95933.41;4912503;29;20040;-69
2021/06/09 01:40:11;;;;;;;16.98;13.77;;;;;;;12.15;87.22;95935.50;4896971;29;20115;-69
2021/06/09 01:42:38;;;;;;;20.05;15.13;;;;;;;12.10;87.13;95932.91;4909081;29;20060;-70
2021/06/09 01:45:11;;;;;;;17.27;14.30;;;;;;;12.04;87.24;95933.97;4907667;29;20439;-70
2021/06/09 01:47:36;;;;;;;17.23;14.57;;;;;;;12.06;87.79;95926.59;4897136;29;20057;-70
2021/06/09 01:50:08;;;;;;;17.17;14.70;;;;;;;12.09;88.16;95931.31;4896664;29;20067;-70
2021/06/09 01:52:33;;;;;;;17.58;15.45;;;;;;;12.03;87.75;95927.13;4897104;29;20129;-70
2021/06/09 01:55:00;;;;;;;21.35;15.23;;;;;;;11.94;88.32;95935.56;4897069;29;20136;-70
2021/06/09 01:57:26;;;;;;;17.30;14.35;;;;;;;11.89;87.25;95930.28;4933268;29;20047;-70
2021/06/09 01:59:52;;;;;;;17.95;13.35;;;;;;;11.90;87.07;95929.22;4915819;29;20179;-70
2021/06/09 02:02:18;;;;;;;16.08;13.90;;;;;;;11.93;87.19;95928.72;4909339;29;20048;-70
2021/06/09 02:04:43;;;;;;;16.00;13.45;;;;;;;11.88;87.43;95920.81;4896735;29;20386;-70
2021/06/09 02:07:09;;;;;;;18.55;13.88;;;;;;;11.85;87.89;95926.59;4903686;29;20156;-69
2021/06/09 02:09:37;;;;;;;17.15;14.10;;;;;;;11.84;87.57;95930.28;4932936;29;20052;-70
2021/06/09 02:12:03;;;;;;;16.77;13.75;;;;;;;11.80;87.41;95923.97;4899844;29;20073;-70
2021/06/09 02:14:29;;;;;;;18.27;13.07;;;;;;;11.76;87.24;95923.69;4914298;29;20380;-70
2021/06/09 02:16:55;;;;;;;17.85;13.90;;;;;;;11.74;87.74;95925.03;4915913;29;20038;-70
2021/06/09 02:19:23;;;;;;;15.85;13.45;;;;;;;11.71;87.17;95928.19;4934321;29;20051;-70
2021/06/09 02:21:50;;;;;;;16.23;12.82;;;;;;;11.70;87.46;95922.13;4914345;29;20051;-70
2021/06/09 02:24:17;;;;;;;18.10;14.07;;;;;;;11.66;87.72;95922.94;4896314;29;20048;-70
2021/06/09 02:26:43;;;;;;;15.02;13.43;;;;;;;11.64;87.68;95915.28;4904971;29;20052;-70
2021/06/09 02:29:10;;;;;;;19.67;14.25;;;;;;;11.58;88.77;95917.16;4931945;29;20130;-70
2021/06/09 02:31:43;;;;;;;16.88;14.02;;;;;;;11.48;88.67;95914.53;4918358;29;20075;-70
2021/06/09 02:34:14;;;;;;;18.00;13.27;;;;;;;11.54;87.76;95916.09;4913848;29;20494;-70
2021/06/09 02:36:42;;;;;;;15.57;13.63;;;;;;;11.56;87.08;95913.97;4917420;29;20106;-70
2021/06/09 02:39:07;;;;;;;14.85;13.20;;;;;;;11.52;87.68;95918.22;4917162;29;20137;-70
2021/06/09 02:41:33;;;;;;;18.35;13.98;;;;;;;11.45;87.73;95917.69;4895724;29;20060;-70
2021/06/09 02:44:00;;;;;;;17.50;13.70;;;;;;;11.41;88.17;95916.63;4911530;29;20390;-70
2021/06/09 02:46:31;;;;;;;16.63;14.07;;;;;;;11.37;88.46;95908.44;4915622;29;20052;-70
2021/06/09 02:49:03;;;;;;;19.50;14.15;;;;;;;11.37;88.73;95918.22;4933818;29;20050;-70
2021/06/09 02:51:35;;;;;;;17.08;14.02;;;;;;;11.40;87.91;95920.31;4926745;29;20059;-70
2021/06/09 02:54:09;;;;;;;18.13;13.98;;;;;;;11.34;88.02;95921.38;4896235;29;20049;-71
2021/06/09 02:56:52;;;;;;;15.57;13.60;;;;;;;11.30;88.20;95925.59;4898372;29;20500;-70
2021/06/09 02:59:39;;;;;;;17.27;13.35;;;;;;;11.32;88.15;95934.00;4927856;29;20175;-70
2021/06/09 03:02:20;;;;;;;16.42;13.43;;;;;;;11.30;88.34;95925.59;4906635;29;20100;-70
2021/06/09 03:05:13;;;;;;;15.65;13.35;;;;;;;11.22;87.99;95925.06;4899737;29;20044;-70
2021/06/09 03:08:08;;;;;;;16.15;13.35;;;;;;;11.21;88.08;95928.75;4904848;29;20052;-70
2021/06/09 03:10:50;;;;;;;16.13;13.20;;;;;;;11.22;88.03;95930.34;4933096;29;20048;-70
2021/06/09 03:13:27;;;;;;;16.30;13.48;;;;;;;11.22;88.03;95925.06;4911026;29;20041;-70
2021/06/09 03:15:58;;;;;;;18.75;14.35;;;;;;;11.18;88.92;95929.28;4895523;29;20045;-69
2021/06/09 03:18:28;;;;;;;17.60;13.60;;;;;;;11.09;88.36;95936.09;4921248;29;20048;-70
2021/06/09 03:21:05;;;;;;;17.00;13.20;;;;;;;11.16;88.46;95935.84;4911206;29;20411;-70
2021/06/09 03:23:34;;;;;;;16.30;12.32;;;;;;;11.20;87.81;95927.16;4895707;29;20052;-70
2021/06/09 03:26:28;;;;;;;16.67;13.40;;;;;;;11.19;87.91;95925.59;4910576;29;20494;-70
2021/06/09 03:29:03;;;;;;;17.77;13.40;;;;;;;11.17;88.03;95927.69;4918515;29;20525;-70
2021/06/09 03:31:37;;;;;;;15.90;13.57;;;;;;;11.11;88.77;95928.75;4925711;29;20051;-70
2021/06/09 03:34:11;;;;;;;20.13;13.88;;;;;;;11.06;89.25;95928.72;4912831;29;20058;-70
2021/06/09 03:36:41;;;;;;;18.60;14.93;;;;;;;11.11;89.54;95934.00;4904076;29;20048;-70
2021/06/09 03:39:09;;;;;;;18.23;14.27;;;;;;;11.14;88.90;95922.94;4912851;29;20294;-70
2021/06/09 03:41:38;;;;;;;18.70;14.50;;;;;;;11.12;89.61;95922.44;4930969;29;20048;-71
2021/06/09 03:44:06;;;;;;;16.50;14.25;;;;;;;11.06;89.05;95926.09;4926040;29;20043;-70
2021/06/09 03:46:32;;;;;;;16.90;13.43;;;;;;;11.03;88.95;95921.34;4927274;29;20472;-70
2021/06/09 03:49:00;;;;;;;23.73;15.18;;;;;;;11.11;89.84;95923.47;4907746;29;20071;-69
2021/06/09 03:51:29;;;;;;;18.65;14.68;;;;;;;11.16;89.40;95915.59;4919514;29;20044;-70
2021/06/09 03:53:58;;;;;;;18.48;15.95;;;;;;;11.14;89.86;95917.66;4908275;29;20043;-70
2021/06/09 03:56:27;;;;;;;18.15;15.18;;;;;;;11.19;89.54;95925.59;4931664;29;20501;-70
2021/06/09 03:58:54;;;;;;;21.23;15.88;;;;;;;11.16;89.10;95926.13;4924596;29;20523;-70
2021/06/09 04:01:21;;;;;;;18.85;15.10;;;;;;;11.19;89.22;95925.59;4894608;29;20073;-70
2021/06/09 04:03:47;;;;;;;20.40;16.40;;;;;;;11.26;90.16;95926.13;4924375;29;20533;-69
2021/06/09 04:06:18;;;;;;;20.98;16.35;;;;;;;11.37;90.33;95936.66;4932719;29;20454;-70
2021/06/09 04:08:46;;;;;;;20.98;16.25;;;;;;;11.43;89.74;95930.31;4925369;29;20035;-70
2021/06/09 04:11:14;;;;;;;20.75;15.95;;;;;;;11.53;89.78;95935.59;4932249;29;20039;-70
2021/06/09 04:13:41;;;;;;;18.50;14.80;;;;;;;11.56;88.99;95935.06;4914532;29;20048;-70
2021/06/09 04:16:08;;;;;;;20.10;16.33;;;;;;;11.59;88.81;95933.75;4913777;29;20419;-70
2021/06/09 04:18:35;;;;;;;25.15;17.95;;;;;;;11.59;90.23;95934.56;4913675;29;20124;-71
2021/06/09 04:21:04;;;;;;;19.80;16.20;;;;;;;11.59;89.62;95934.56;4913367;29;20040;-70
2021/06/09 04:23:30;;;;;;;20.60;15.60;;;;;;;11.63;89.59;95934.00;4913706;29;20048;-70
2021/06/09 04:25:59;;;;;;;23.77;17.38;;;;;;;11.71;90.49;95930.81;4919395;29;20047;-70
2021/06/09 04:28:26;;;;;;;24.25;17.98;;;;;;;11.85;90.35;95931.88;4912453;29;20095;-69
2021/06/09 04:30:52;;;;;;;25.80;19.13;;;;;;;11.89;90.42;95932.91;4912895;29;20102;-70
2021/06/09 04:33:18;;;;;;;25.45;19.90;;;;;;;11.95;90.90;95937.16;4900584;29;20080;-70
2021/06/09 04:35:45;;;;;;;25.52;20.15;;;;;;;12.05;91.01;95935.53;4916574;29;20512;-69
2021/06/09 04:38:13;;;;;;;25.42;18.75;;;;;;;12.12;90.53;95946.59;4910949;29;20044;-70
2021/06/09 04:40:39;;;;;;;26.05;19.25;;;;;;;12.23;90.56;95940.25;4910200;29;20095;-69
2021/06/09 04:43:05;;;;;;;25.98;18.70;;;;;;;12.42;89.58;95937.03;4899301;29;20069;-70
2021/06/09 04:45:30;;;;;;;21.92;17.95;;;;;;;12.48;89.76;95938.56;4927483;29;20442;-70
2021/06/09 04:47:56;;;;;;;21.80;18.13;;;;;;;12.53;89.81;95940.38;4898125;29;20092;-70
2021/06/09 04:50:25;;;;;;;20.58;16.80;;;;;;;12.61;89.72;95932.72;4906114;29;20056;-70
2021/06/09 04:52:52;;;;;;;20.10;17.00;;;;;;;12.71;89.35;95936.34;4922714;29;20468;-70
2021/06/09 04:55:18;;;;;;;19.42;16.80;;;;;;;12.76;89.49;95933.72;4916200;29;20056;-70
2021/06/09 04:57:44;;;;;;;21.25;17.05;;;;;;;12.87;89.15;95935.19;4905188;29;20052;-70
2021/06/09 05:00:12;;;;;;;20.98;17.33;;;;;;;12.99;88.89;95926.97;4914739;29;20044;-69
2021/06/09 05:02:39;;;;;;;19.52;16.17;;;;;;;13.03;88.70;95927.19;4903929;29;20416;-70
2021/06/09 05:05:05;;;;;;;21.35;16.92;;;;;;;13.08;88.84;95929.81;4917349;29;20046;-70
2021/06/09 05:07:31;;;;;;;22.15;16.42;;;;;;;13.19;88.80;95931.31;4931499;29;20409;-70
2021/06/09 05:09:57;;;;;;;20.33;16.42;;;;;;;13.22;88.62;95936.06;4901407;29;20040;-70
2021/06/09 05:12:28;;;;;;;20.98;17.65;;;;;;;13.29;88.87;95931.25;4908278;29;20048;-70
2021/06/09 05:15:08;;;;;;;19.05;16.67;;;;;;;13.38;88.72;95933.34;4915039;29;20497;-71
2021/06/09 05:17:44;;;;;;;19.95;16.40;;;;;;;13.52;88.09;95929.00;4897777;29;20037;-70
2021/06/09 05:20:32;;;;;;;22.45;18.10;;;;;;;13.68;87.43;95922.47;4908269;29;20163;-70
2021/06/09 05:23:19;;;;;;;21.95;16.95;;;;;;;13.79;87.47;95922.38;4898553;29;20427;-70
2021/06/09 05:25:51;;;;;;;20.15;16.88;;;;;;;13.87;87.26;95919.13;4907159;29;20123;-71
2021/06/09 05:28:19;;;;;;;22.23;17.38;;;;;;;14.01;87.12;95930.63;4898247;29;20403;-71
2021/06/09 05:30:46;;;;;;;19.92;17.35;;;;;;;14.17;87.00;95927.84;4896885;29;20387;-71
2021/06/09 05:33:12;;;;;;;18.85;16.40;;;;;;;14.22;86.47;95925.13;4900808;29;20055;-71
2021/06/09 05:35:38;;;;;;;21.90;18.13;;;;;;;14.31;85.88;95922.63;4915756;29;20039;-71
2021/06/09 05:38:04;;;;;;;24.00;19.13;;;;;;;14.33;85.84;95931.88;4905168;29;20052;-71
2021/06/09 05:40:31;;;;;;;24.20;19.15;;;;;;;14.36;85.67;95927.88;4911615;29;20040;-71
2021/06/09 05:42:57;;;;;;;25.60;18.50;;;;;;;14.41;85.54;95917.25;4912892;29;20486;-71
2021/06/09 05:45:33;;;;;;;25.83;19.05;;;;;;;14.51;85.40;95916.31;4900017;29;20052;-71
2021/06/09 05:48:00;;;;;;;24.10;19.42;;;;;;;14.67;84.99;95912.44;4927599;29;20043;-72
2021/06/09 05:50:31;;;;;;;22.77;18.98;;;;;;;14.77;84.85;95918.66;4899774;29;20051;-71
2021/06/09 05:52:59;;;;;;;23.17;18.52;;;;;;;14.82;84.08;95915.94;4897452;29;20060;-72
2021/06/09 05:55:27;;;;;;;25.63;19.33;;;;;;;14.97;84.02;95913.09;4897012;29;20495;-71
2021/06/09 05:57:55;;;;;;;22.52;18.48;;;;;;;15.15;83.21;95913.34;4900111;29;20120;-71
2021/06/09 06:00:25;;;;;;;24.33;18.60;;;;;;;15.13;82.45;95910.19;4913475;29;20044;-71
2021/06/09 06:02:51;;;;;;;21.25;17.77;;;;;;;15.22;82.97;95919.09;4916056;29;20501;-70
2021/06/09 06:05:18;;;;;;;20.52;16.50;;;;;;;15.26;83.36;95917.44;4928114;29;20064;-72
2021/06/09 06:07:44;;;;;;;24.30;19.23;;;;;;;15.24;82.50;95920.38;4934655;29;20155;-71
2021/06/09 06:10:12;;;;;;;22.05;18.67;;;;;;;15.35;83.20;95918.34;4910159;29;20123;-72
2021/06/09 06:12:41;;;;;;;20.92;17.77;;;;;;;15.50;82.18;95919.16;4896812;29;20529;-71
2021/06/09 06:15:09;;;;;;;22.38;17.90;;;;;;;15.58;82.21;95910.56;4914634;29;20118;-72
2021/06/09 06:17:42;;;;;;;21.48;17.65;;;;;;;15.56;81.62;95912.72;4934632;29;20039;-72
2021/06/09 06:20:20;;;;;;;27.63;18.80;;;;;;;15.69;81.84;95919.91;4934402;29;20051;-72
2021/06/09 06:22:49;;;;;;;22.33;18.40;;;;;;;15.74;81.07;95919.81;4911203;29;20044;-72
2021/06/09 06:25:19;;;;;;;23.55;18.60;;;;;;;15.84;79.50;95912.78;4932751;29;20127;-72
2021/06/09 06:27:49;;;;;;;22.00;17.63;;;;;;;15.82;80.71;95920.28;4934631;29;20048;-72
2021/06/09 06:30:17;;;;;;;26.25;18.23;;;;;;;15.77;81.06;95919.25;4926276;29;20399;-72
2021/06/09 06:32:45;;;;;;;25.50;18.55;;;;;;;15.82;80.82;95928.22;4915568;29;20045;-72
2021/06/09 06:35:12;;;;;;;20.10;16.38;;;;;;;15.90;80.14;95922.22;4917497;29;20043;-72
2021/06/09 06:37:38;;;;;;;21.08;16.05;;;;;;;16.03;80.15;95916.16;4917518;29;20040;-72
2021/06/09 06:40:05;;;;;;;20.27;16.63;;;;;;;16.00;79.42;95916.72;4899900;29;20036;-72
2021/06/09 06:42:31;;;;;;;25.85;17.20;;;;;;;15.94;78.91;95923.22;4900321;29;20040;-72
2021/06/09 06:44:58;;;;;;;23.85;17.60;;;;;;;16.02;79.49;95924.41;4915223;29;20115;-72
2021/06/09 06:47:27;;;;;;;24.00;17.05;;;;;;;16.06;79.75;95925.38;4915606;29;20051;-72
2021/06/09 06:49:55;;;;;;;23.10;16.45;;;;;;;16.14;78.71;95929.25;4917010;29;20050;-72
2021/06/09 06:52:21;;;;;;;21.63;16.00;;;;;;;16.32;78.83;95933.69;4916055;29;20055;-73
2021/06/09 06:54:46;;;;;;;22.95;16.77;;;;;;;16.42;78.09;95924.69;4915828;29;20048;-72
2021/06/09 06:57:12;;;;;;;22.35;18.13;;;;;;;16.37;78.11;95922.94;4917086;29;20048;-72
2021/06/09 06:59:39;;;;;;;27.58;17.88;;;;;;;16.26;78.70;95930.34;4918802;29;20101;-72
2021/06/09 07:02:06;;;;;;;21.38;16.25;;;;;;;16.42;78.55;95928.16;4927771;29;20058;-72
2021/06/09 07:04:32;;;;;;;22.88;16.77;;;;;;;16.59;77.59;95932.06;4932548;29;20046;-72
2021/06/09 07:06:58;;;;;;;18.92;14.85;;;;;;;16.61;78.61;95924.59;4933817;29;20048;-72
2021/06/09 07:09:24;;;;;;;24.70;17.77;;;;;;;16.62;78.17;95936.78;4914312;29;20467;-73
2021/06/09 07:11:52;;;;;;;20.88;16.38;;;;;;;16.71;77.11;95935.03;4908876;29;20044;-73
2021/06/09 07:14:24;;;;;;;19.90;16.50;;;;;;;17.01;76.07;95938.13;4912059;29;20522;-72
2021/06/09 07:16:51;;;;;;;26.00;16.90;;;;;;;17.19;74.84;95932.97;4914774;29;20393;-72
2021/06/09 07:19:17;;;;;;;20.33;15.95;;;;;;;17.27;75.37;95945.53;4914632;29;20055;-73
2021/06/09 07:21:43;;;;;;;24.60;16.98;;;;;;;17.14;74.63;95937.31;4931851;29;20047;-72
2021/06/09 07:24:09;;;;;;;21.02;17.08;;;;;;;17.24;74.54;95935.47;4914112;29;20128;-73
2021/06/09 07:26:39;;;;;;;20.10;16.75;;;;;;;17.31;74.70;95941.16;4914547;29;20112;-72
2021/06/09 07:29:06;;;;;;;26.70;16.88;;;;;;;17.52;74.37;95940.72;4919996;29;20047;-72
2021/06/09 07:31:37;;;;;;;21.55;16.90;;;;;;;17.62;73.58;95937.78;4898540;29;20056;-73
2021/06/09 07:34:05;;;;;;;22.15;16.25;;;;;;;17.52;74.54;95935.38;4895514;29;20525;-73
2021/06/09 07:36:50;;;;;;;20.02;16.92;;;;;;;17.47;74.35;95945.06;4895553;29;20495;-72
2021/06/09 07:39:22;;;;;;;21.55;15.85;;;;;;;17.55;75.63;95940.09;4895337;29;20395;-73
2021/06/09 07:41:48;;;;;;;19.38;16.73;;;;;;;17.61;73.77;95938.88;4912396;29;20410;-73
2021/06/09 07:44:17;;;;;;;27.10;17.00;;;;;;;17.69;73.98;95942.69;4897088;29;20036;-72
2021/06/09 07:46:44;;;;;;;22.52;17.13;;;;;;;17.66;73.62;95946.75;4933200;29;20417;-73
2021/06/09 07:49:13;;;;;;;20.52;17.13;;;;;;;17.68;74.09;95947.22;4932968;29;20073;-72
2021/06/09 07:51:42;;;;;;;23.15;17.25;;;;;;;17.65;74.05;95950.50;4917165;29;20574;-72
2021/06/09 07:54:08;;;;;;;21.77;16.80;;;;;;;17.77;74.00;95948.06;4895250;29;20055;-73
2021/06/09 07:56:36;;;;;;;20.15;17.48;;;;;;;17.81;73.25;95949.03;4895258;29;20037;-72
2021/06/09 07:59:05;;;;;;;23.92;16.60;;;;;;;17.95;72.89;95943.63;4895070;29;20051;-70
2021/06/09 08:01:32;;;;;;;21.00;16.02;;;;;;;17.99;72.38;95943.81;4894641;29;20483;-70
2021/06/09 08:03:58;;;;;;;21.73;17.35;;;;;;;18.00;72.04;95961.34;4894835;29;20059;-70
2021/06/09 08:06:24;;;;;;;21.92;16.02;;;;;;;18.21;72.84;95950.19;4895146;29;20048;-70
2021/06/09 08:08:50;;;;;;;21.38;17.50;;;;;;;18.28;70.64;95945.19;4895708;29;20136;-70
2021/06/09 08:11:17;;;;;;;26.65;18.17;;;;;;;18.34;70.13;95949.28;4931686;29;20049;-70
2021/06/09 08:13:44;;;;;;;20.90;16.85;;;;;;;18.55;70.34;95954.84;4903570;29;20127;-70
2021/06/09 08:16:20;;;;;;;20.88;17.02;;;;;;;18.73;70.37;95945.00;4894914;29;20072;-73
2021/06/09 08:18:47;;;;;;;22.58;17.17;;;;;;;18.89;67.60;95953.38;4909623;29;20117;-72
2021/06/09 08:21:20;;;;;;;21.55;18.02;;;;;;;18.95;67.24;95964.66;4910450;29;20120;-73
2021/06/09 08:23:48;;;;;;;19.65;17.25;;;;;;;19.16;67.83;95968.28;4898872;29;20553;-72
2021/06/09 08:26:16;;;;;;;23.00;16.58;;;;;;;19.10;68.49;95961.56;4898831;29;20484;-73
2021/06/09 08:28:43;;;;;;;22.50;16.50;;;;;;;19.20;68.08;95961.25;4899417;29;20123;-73
2021/06/09 08:31:13;;;;;;;20.83;16.98;;;;;;;19.32;67.65;95959.84;4909587;29;20392;-73
2021/06/09 08:33:41;;;;;;;21.25;16.25;;;;;;;19.35;68.03;95953.88;4913253;29;20056;-73
2021/06/09 08:36:09;;;;;;;20.02;17.13;;;;;;;19.41;66.88;95957.97;4912052;29;20067;-73
2021/06/09 08:38:35;;;;;;;23.08;17.40;;;;;;;19.32;67.10;95957.97;4917705;29;20070;-73
2021/06/09 08:41:02;;;;;;;26.85;16.60;;;;;;;19.40;67.32;95956.38;4902552;29;20096;-72
2021/06/09 08:43:28;;;;;;;19.98;15.23;;;;;;;19.48;67.72;95952.94;4898597;29;20057;-73
2021/06/09 08:45:53;;;;;;;20.88;15.85;;;;;;;19.73;67.52;95958.53;4898727;29;20529;-73
2021/06/09 08:48:19;;;;;;;20.92;16.40;;;;;;;19.78;67.12;95950.34;4898536;29;20071;-73
2021/06/09 08:50:49;;;;;;;20.90;16.27;;;;;;;19.59;66.54;95952.59;4907807;29;20458;-73
2021/06/09 08:53:20;;;;;;;23.17;15.65;;;;;;;19.73;66.88;95953.22;4898656;29;20045;-73
2021/06/09 08:55:46;;;;;;;20.55;16.17;;;;;;;19.70;65.08;95953.84;4898452;29;20045;-73
2021/06/09 08:58:12;;;;;;;21.02;15.20;;;;;;;19.89;64.55;95956.97;4898444;29;20113;-72
2021/06/09 09:00:40;;;;;;;21.50;17.85;;;;;;;19.84;65.45;95953.66;4912924;29;20051;-72
2021/06/09 09:03:07;;;;;;;22.55;17.58;;;;;;;19.92;65.42;95952.09;4936202;29;20048;-73
2021/06/09 09:05:34;;;;;;;18.92;16.17;;;;;;;20.02;67.10;95957.09;4936054;29;20051;-73
2021/06/09 09:08:02;;;;;;;22.25;17.13;;;;;;;20.20;66.00;95955.94;4934828;29;20043;-73
2021/06/09 09:10:28;;;;;;;21.73;17.10;;;;;;;20.22;65.54;95958.28;4914892;29;20044;-73
2021/06/09 09:12:54;;;;;;;20.92;16.27;;;;;;;20.34;64.72;95955.72;4919400;29;20491;-73
2021/06/09 09:15:20;;;;;;;23.80;16.52;;;;;;;20.43;63.60;95958.38;4898000;29;20056;-73
2021/06/09 09:17:57;;;;;;;21.42;16.38;;;;;;;20.37;61.74;95956.97;4898064;29;20112;-73
2021/06/09 09:20:29;;;;;;;23.05;15.75;;;;;;;20.57;62.47;95958.91;4904112;29;20040;-72
2021/06/09 09:22:59;;;;;;;19.90;16.50;;;;;;;20.70;61.24;95956.34;4897896;29;20045;-73
2021/06/09 09:25:31;;;;;;;19.48;15.18;;;;;;;20.69;61.19;95960.16;4897793;29;20378;-73
2021/06/09 09:28:05;;;;;;;18.70;15.93;;;;;;;20.76;58.29;95955.06;4914199;29;20059;-72
2021/06/09 09:30:33;;;;;;;20.63;15.43;;;;;;;20.70;60.01;95953.69;4903411;29;20045;-73
2021/06/09 09:33:08;;;;;;;18.92;15.77;;;;;;;20.55;57.16;95955.78;4920343;29;20459;-70
2021/06/09 09:35:37;;;;;;;19.30;16.05;;;;;;;20.63;60.65;95950.69;4911748;29;20045;-70
2021/06/09 09:38:23;;;;;;;19.85;16.17;;;;;;;20.66;60.91;95956.19;4912815;29;20041;-71
2021/06/09 09:41:12;;;;;;;20.20;16.08;;;;;;;20.84;61.04;95959.56;4901619;29;20076;-70
2021/06/09 09:43:57;;;;;;;19.95;15.93;;;;;;;21.05;60.15;95956.16;4923666;29;20052;-70
2021/06/09 09:46:30;;;;;;;21.23;15.48;;;;;;;21.25;59.80;95968.75;4910867;29;20174;-71
2021/06/09 09:49:00;;;;;;;18.75;15.88;;;;;;;21.36;60.96;95960.31;4914217;29;20052;-71
2021/06/09 09:51:29;;;;;;;20.13;16.02;;;;;;;21.56;58.85;95964.88;4907949;29;20052;-70
2021/06/09 09:54:00;;;;;;;22.83;15.00;;;;;;;21.51;58.08;95959.75;4905402;29;20037;-71
2021/06/09 09:56:30;;;;;;;19.35;14.88;;;;;;;21.70;57.99;95967.28;4909775;29;20426;-70
2021/06/09 09:59:03;;;;;;;26.60;15.18;;;;;;;21.77;57.72;95959.50;4897392;29;20040;-71
2021/06/09 10:01:31;;;;;;;18.52;15.82;;;;;;;22.15;56.60;95960.34;4897664;29;20044;-71
2021/06/09 10:03:59;;;;;;;18.52;14.57;;;;;;;22.08;56.40;95963.59;4931660;29;20664;-72
2021/06/09 10:06:32;;;;;;;17.05;14.07;;;;;;;21.88;57.46;95959.06;4920048;29;20090;-76
2021/06/09 10:09:07;;;;;;;20.02;15.98;;;;;;;21.60;55.80;95965.00;4919860;29;20051;-72
2021/06/09 10:11:33;;;;;;;18.85;14.98;;;;;;;21.77;55.94;95950.69;4914939;29;20111;-73
2021/06/09 10:13:59;;;;;;;19.63;14.80;;;;;;;22.01;56.31;95951.84;4920512;29;20425;-72
2021/06/09 10:16:31;;;;;;;19.50;15.15;;;;;;;21.91;56.24;95958.41;4915342;29;20048;-72
2021/06/09 10:19:08;;;;;;;17.90;14.93;;;;;;;22.51;55.03;95948.09;4902337;29;20574;-72
2021/06/09 10:21:43;;;;;;;19.02;16.80;;;;;;;22.88;54.21;95956.13;4902222;29;20036;-72
2021/06/09 10:24:09;;;;;;;18.83;15.75;;;;;;;23.27;53.57;95945.78;4930839;29;20131;-76
2021/06/09 10:26:37;;;;;;;19.98;14.77;;;;;;;22.91;55.05;95950.09;4934855;29;20059;-76
2021/06/09 10:29:18;;;;;;;17.17;14.18;;;;;;;23.18;53.59;95947.84;4934786;29;20032;-74
2021/06/09 10:31:56;;;;;;;15.90;14.10;;;;;;;22.54;55.06;95942.09;4915169;29;20032;-74
2021/06/09 10:34:24;;;;;;;20.15;13.77;;;;;;;22.42;55.23;95950.13;4910454;29;20542;-73
2021/06/09 10:36:52;;;;;;;16.35;13.70;;;;;;;22.76;53.73;95937.38;4925913;29;20048;-69
2021/06/09 10:39:19;;;;;;;17.20;13.80;;;;;;;23.48;51.57;95936.78;4923519;29;20048;-73
2021/06/09 10:41:48;;;;;;;16.13;12.45;;;;;;;23.97;48.18;95933.84;4915164;29;20418;-72
2021/06/09 10:44:17;;;;;;;21.92;11.70;;;;;;;24.41;48.72;95929.50;4896493;29;20048;-72
2021/06/09 10:46:48;;;;;;;15.25;11.80;;;;;;;24.73;47.63;95928.34;4896589;29;20048;-72
2021/06/09 10:49:18;;;;;;;14.20;11.70;;;;;;;25.59;46.36;95917.81;4900721;29;20123;-74
2021/06/09 10:51:49;;;;;;;15.27;12.65;;;;;;;25.39;47.00;95915.13;4922025;29;20115;-74
2021/06/09 10:54:16;;;;;;;15.98;11.65;;;;;;;25.26;46.43;95902.91;4933634;29;20040;-73
2021/06/09 10:56:45;;;;;;;16.20;11.25;;;;;;;24.87;47.60;95903.66;4914517;29;20071;-74
2021/06/09 10:59:19;;;;;;;16.02;13.00;;;;;;;24.34;47.26;95909.38;4915580;29;20044;-74
2021/06/09 11:01:46;;;;;;;15.73;13.38;;;;;;;23.83;48.94;95903.91;4920201;29;20050;-71
2021/06/09 11:04:12;;;;;;;16.35;12.05;;;;;;;23.42;50.41;95900.50;4919211;29;20057;-71
2021/06/09 11:06:41;;;;;;;14.82;13.25;;;;;;;22.98;49.85;95891.25;4904672;29;20088;-72
2021/06/09 11:09:21;;;;;;;19.40;12.43;;;;;;;23.14;51.10;95894.06;4895019;29;20570;-72
2021/06/09 11:12:07;;;;;;;17.25;11.65;;;;;;;23.30;50.47;95891.41;4922611;29;20032;-71
2021/06/09 11:14:32;;;;;;;13.23;11.93;;;;;;;24.32;47.61;95895.53;4910778;29;20055;-72
2021/06/09 11:16:58;;;;;;;12.75;11.43;;;;;;;24.70;46.56;95883.31;4922289;29;20048;-72
2021/06/09 11:19:38;;;;;;;12.38;11.10;;;;;;;24.29;47.46;95873.91;4916918;29;20043;-71
2021/06/09 11:22:19;;;;;;;12.38;11.07;;;;;;;23.55;48.79;95880.56;4910100;29;20406;-72
2021/06/09 11:25:12;;;;;;;13.95;11.35;;;;;;;23.41;48.79;95870.22;4924373;29;20281;-72
2021/06/09 11:27:59;;;;;;;34.00;12.10;;;;;;;24.94;45.14;95870.75;4915068;29;20249;-71
2021/06/09 11:30:24;;;;;;;16.17;10.68;;;;;;;25.81;42.58;95861.59;4905424;29;20051;-72